Time;durP1;ratioP1;P1;durP2;ratioP2;P2;SDS_P1;SDS_P2;PMS_P1;PMS_P2;Temp;Humidity;BMP_temperature;BMP_pressure;BME280_temperature;BME280_humidity;BME280_pressure;Samples;Min_cycle;Max_cycle;Signal;HPM_P1;HPM_P2
2022/06/11 00:00:13;;;;;;;3.83;1.10;;;21.20;52.40;;;;;;5058438;28;20492;-54
2022/06/11 00:02:40;;;;;;;6.72;1.30;;;21.20;52.50;;;;;;5055525;28;20059;-53
2022/06/11 00:05:09;;;;;;;4.13;1.33;;;21.20;52.60;;;;;;5060463;28;20048;-51
2022/06/11 00:07:38;;;;;;;3.63;1.20;;;21.20;52.80;;;;;;5058306;28;20063;-52
2022/06/11 00:10:08;;;;;;;4.65;1.48;;;21.20;52.90;;;;;;5061606;28;20052;-53
2022/06/11 00:12:36;;;;;;;2.85;1.30;;;21.20;52.90;;;;;;5060007;28;20059;-50
2022/06/11 00:15:05;;;;;;;6.75;1.83;;;21.20;52.80;;;;;;5060309;28;20059;-53
2022/06/11 00:17:33;;;;;;;2.92;1.20;;;21.20;52.90;;;;;;5060038;28;20055;-49
2022/06/11 00:20:00;;;;;;;5.10;1.33;;;21.20;52.80;;;;;;5058679;28;20060;-53
2022/06/11 00:22:28;;;;;;;4.57;1.77;;;21.20;52.80;;;;;;5057727;28;20057;-52
2022/06/11 00:24:57;;;;;;;2.60;1.20;;;21.10;52.80;;;;;;5060920;28;20052;-50
2022/06/11 00:27:24;;;;;;;4.97;1.63;;;21.10;52.90;;;;;;5061518;28;20064;-52
2022/06/11 00:29:53;;;;;;;7.43;1.70;;;21.10;52.90;;;;;;5060575;28;20055;-53
2022/06/11 00:32:20;;;;;;;6.45;1.58;;;21.10;52.90;;;;;;5056506;28;20484;-53
2022/06/11 00:34:48;;;;;;;4.55;1.60;;;21.10;52.90;;;;;;5059539;28;20052;-53
2022/06/11 00:37:17;;;;;;;2.28;1.40;;;21.10;52.90;;;;;;5061145;28;20056;-54
2022/06/11 00:39:46;;;;;;;6.35;1.17;;;21.10;53.00;;;;;;5060228;28;20063;-53
2022/06/11 00:42:21;;;;;;;8.52;1.42;;;21.10;53.00;;;;;;5060153;28;20055;-52
2022/06/11 00:44:49;;;;;;;4.70;1.23;;;21.10;53.10;;;;;;5055933;28;20502;-51
2022/06/11 00:47:21;;;;;;;4.78;1.25;;;21.00;53.10;;;;;;5057352;28;20049;-52
2022/06/11 00:49:51;;;;;;;4.03;1.38;;;21.00;53.30;;;;;;5058929;28;20500;-55
2022/06/11 00:52:26;;;;;;;3.35;1.30;;;21.00;53.20;;;;;;5057178;28;20052;-50
2022/06/11 00:54:59;;;;;;;4.68;1.80;;;21.10;53.30;;;;;;5057650;28;20056;-50
2022/06/11 00:57:33;;;;;;;5.68;1.52;;;21.00;53.30;;;;;;5061078;28;20064;-54
2022/06/11 01:00:04;;;;;;;;;;;21.00;53.30;;;;;;5060292;28;20463;-50
2022/06/11 01:02:31;;;;;;;4.55;1.38;;;21.10;53.20;;;;;;5061481;28;19929;-51
2022/06/11 01:05:01;;;;;;;6.20;1.67;;;21.10;53.10;;;;;;5059389;28;20052;-51
2022/06/11 01:08:05;;;;;;;3.55;1.17;;;21.10;53.30;;;;;;5061070;28;20419;-51
2022/06/11 01:11:11;;;;;;;4.10;1.50;;;21.00;53.50;;;;;;5016682;28;20448;-53
2022/06/11 01:13:51;;;;;;;6.40;1.42;;;21.00;53.40;;;;;;5057340;28;20056;-52
2022/06/11 01:16:34;;;;;;;3.08;1.38;;;21.00;53.40;;;;;;5058338;28;20080;-54
2022/06/11 01:19:21;;;;;;;8.00;1.88;;;21.00;53.40;;;;;;5058010;28;20052;-53
2022/06/11 01:22:07;;;;;;;3.78;1.40;;;21.00;53.40;;;;;;5056098;28;20048;-52
2022/06/11 01:24:52;;;;;;;3.33;1.35;;;20.90;53.50;;;;;;5057074;28;20519;-53
2022/06/11 01:27:38;;;;;;;4.60;1.75;;;20.90;53.60;;;;;;5058539;28;20057;-52
2022/06/11 01:30:09;;;;;;;2.25;1.35;;;20.90;53.60;;;;;;5051085;28;20523;-54
2022/06/11 01:32:50;;;;;;;5.53;1.75;;;20.90;53.60;;;;;;5063003;28;20421;-50
2022/06/11 01:35:31;;;;;;;6.22;1.20;;;20.90;53.70;;;;;;5059385;28;20063;-49
2022/06/11 01:38:03;;;;;;;5.30;1.50;;;20.90;53.80;;;;;;5062479;28;20875;-53
2022/06/11 01:40:39;;;;;;;4.25;1.63;;;20.90;53.80;;;;;;5057771;28;20064;-50
2022/06/11 01:43:19;;;;;;;4.10;1.35;;;20.90;53.80;;;;;;5064048;28;20055;-54
2022/06/11 01:45:50;;;;;;;3.47;1.10;;;20.90;54.40;;;;;;5061753;28;20059;-52
2022/06/11 01:48:23;;;;;;;2.47;1.25;;;20.90;53.90;;;;;;5061938;28;20393;-50
2022/06/11 01:51:08;;;;;;;4.30;1.60;;;20.90;53.90;;;;;;5059708;28;20617;-54
2022/06/11 01:53:56;;;;;;;5.03;1.65;;;20.90;54.00;;;;;;5064293;28;20053;-51
2022/06/11 01:57:05;;;;;;;6.70;1.77;;;20.90;54.00;;;;;;5062267;28;20056;-51
2022/06/11 01:59:54;;;;;;;5.95;1.55;;;20.90;54.10;;;;;;5063036;28;20067;-50
2022/06/11 02:02:42;;;;;;;4.68;1.88;;;20.80;54.00;;;;;;5061428;28;20052;-51
2022/06/11 02:05:15;;;;;;;3.75;1.40;;;20.90;54.10;;;;;;5060505;28;20599;-50
2022/06/11 02:07:49;;;;;;;6.73;1.63;;;20.90;54.20;;;;;;5064422;28;20056;-54
2022/06/11 02:10:21;;;;;;;4.35;1.50;;;20.80;54.10;;;;;;5063125;28;20048;-53
2022/06/11 02:12:54;;;;;;;4.47;1.38;;;20.80;54.30;;;;;;5063442;28;20428;-50
2022/06/11 02:15:29;;;;;;;5.47;1.70;;;20.80;54.30;;;;;;5061244;28;20522;-52
2022/06/11 02:18:01;;;;;;;3.97;1.60;;;20.80;54.40;;;;;;5062224;28;20057;-53
2022/06/11 02:20:35;;;;;;;4.53;1.48;;;20.80;54.50;;;;;;5058160;28;20587;-52
2022/06/11 02:23:09;;;;;;;3.60;1.30;;;20.80;54.50;;;;;;5062908;28;20412;-54
2022/06/11 02:25:38;;;;;;;;;;;20.80;54.50;;;;;;5063029;28;20060;-48
2022/06/11 02:28:13;;;;;;;6.40;1.60;;;20.80;54.90;;;;;;5063486;28;19928;-50
2022/06/11 02:30:43;;;;;;;3.08;1.40;;;20.80;54.30;;;;;;5061034;28;20068;-51
2022/06/11 02:33:15;;;;;;;5.20;1.90;;;20.80;54.40;;;;;;5063520;28;20420;-52
2022/06/11 02:35:47;;;;;;;3.53;1.40;;;20.80;54.60;;;;;;5060090;28;20423;-52
2022/06/11 02:38:17;;;;;;;2.92;1.33;;;20.70;54.60;;;;;;5063315;28;20079;-50
2022/06/11 02:40:48;;;;;;;4.13;1.33;;;20.70;54.70;;;;;;5061669;28;20053;-50
2022/06/11 02:43:15;;;;;;;5.57;1.88;;;20.70;54.70;;;;;;5062372;28;20480;-53
2022/06/11 02:45:43;;;;;;;7.53;1.88;;;20.70;54.80;;;;;;5061853;28;20056;-51
2022/06/11 02:48:12;;;;;;;4.93;1.55;;;20.70;54.90;;;;;;5061967;28;20048;-52
2022/06/11 02:50:40;;;;;;;2.67;1.45;;;20.70;54.90;;;;;;5059601;28;20444;-49
2022/06/11 02:53:09;;;;;;;8.00;2.17;;;20.60;54.80;;;;;;5062410;28;20504;-53
2022/06/11 02:55:39;;;;;;;4.13;1.58;;;20.70;55.00;;;;;;5062386;28;20396;-52
2022/06/11 02:58:07;;;;;;;14.20;2.00;;;20.60;55.00;;;;;;5063005;28;20052;-51
2022/06/11 03:00:38;;;;;;;4.80;1.45;;;20.60;55.00;;;;;;5058157;28;20060;-49
2022/06/11 03:03:06;;;;;;;3.13;1.38;;;20.60;55.00;;;;;;5061605;28;20053;-52
2022/06/11 03:05:37;;;;;;;5.20;1.65;;;20.60;55.00;;;;;;5060632;28;20067;-52
2022/06/11 03:08:08;;;;;;;2.25;1.25;;;20.60;55.10;;;;;;5062068;28;20059;-52
2022/06/11 03:10:36;;;;;;;6.88;1.98;;;20.60;55.10;;;;;;5060630;28;20060;-50
2022/06/11 03:13:04;;;;;;;3.15;1.40;;;20.60;55.10;;;;;;5062566;28;20056;-50
2022/06/11 03:15:32;;;;;;;4.75;1.70;;;20.60;55.20;;;;;;5060432;28;20098;-51
2022/06/11 03:18:00;;;;;;;4.95;1.45;;;20.60;55.20;;;;;;5061633;28;20059;-53
2022/06/11 03:20:31;;;;;;;3.42;1.70;;;20.60;55.20;;;;;;5060035;28;20059;-52
2022/06/11 03:23:16;;;;;;;6.45;1.70;;;20.60;55.40;;;;;;5056877;28;20090;-53
2022/06/11 03:25:43;;;;;;;4.20;1.70;;;20.50;55.40;;;;;;5057192;28;20484;-52
2022/06/11 03:28:14;;;;;;;2.90;1.50;;;20.60;55.40;;;;;;5059630;28;20060;-55
2022/06/11 03:30:42;;;;;;;10.80;2.50;;;20.60;55.60;;;;;;5059001;28;20063;-48
2022/06/11 03:33:10;;;;;;;5.95;1.50;;;20.50;55.50;;;;;;5061170;28;20063;-51
2022/06/11 03:35:37;;;;;;;4.47;1.52;;;20.60;55.60;;;;;;5058378;28;20052;-51
2022/06/11 03:38:07;;;;;;;4.65;1.60;;;20.50;55.60;;;;;;5061242;28;20052;-50
2022/06/11 03:40:36;;;;;;;5.50;2.15;;;20.50;55.60;;;;;;5055338;28;20053;-50
2022/06/11 03:43:04;;;;;;;4.25;1.55;;;20.50;55.60;;;;;;5061232;28;20052;-51
2022/06/11 03:45:32;;;;;;;3.50;1.63;;;20.50;55.60;;;;;;5059496;28;20052;-53
2022/06/11 03:48:00;;;;;;;4.65;1.63;;;20.50;55.60;;;;;;5061044;28;20048;-48
2022/06/11 03:50:30;;;;;;;5.25;1.98;;;20.50;55.60;;;;;;5057443;28;21362;-51
2022/06/11 03:52:58;;;;;;;4.65;1.75;;;20.50;55.70;;;;;;5060824;28;20051;-48
2022/06/11 03:55:26;;;;;;;6.70;1.85;;;20.50;55.70;;;;;;5060325;28;20060;-53
2022/06/11 03:57:55;;;;;;;6.28;1.63;;;20.50;55.80;;;;;;5058319;28;20055;-53
2022/06/11 04:03:15;;;;;;;4.90;1.70;;;20.50;55.80;;;;;;5067519;28;20411;-49
2022/06/11 04:05:44;;;;;;;8.48;1.77;;;20.50;55.90;;;;;;5056973;28;20044;-50
2022/06/11 04:08:14;;;;;;;5.75;2.10;;;20.50;55.90;;;;;;5060977;28;20480;-49
2022/06/11 04:10:42;;;;;;;4.65;1.83;;;20.50;55.90;;;;;;5056842;28;20063;-47
2022/06/11 04:13:12;;;;;;;6.57;2.40;;;20.50;56.00;;;;;;5060039;28;20053;-51
2022/06/11 04:15:41;;;;;;;4.82;2.00;;;20.40;56.00;;;;;;5056215;28;20377;-51
2022/06/11 04:18:17;;;;;;;5.07;2.00;;;20.40;55.90;;;;;;5051925;28;20044;-48
2022/06/11 04:20:44;;;;;;;6.07;2.00;;;20.40;55.90;;;;;;5055248;28;20587;-49
2022/06/11 04:23:12;;;;;;;4.22;1.50;;;20.40;55.90;;;;;;5060827;28;20053;-52
2022/06/11 04:25:39;;;;;;;3.17;1.52;;;20.50;56.10;;;;;;5058591;28;20055;-49
2022/06/11 04:28:07;;;;;;;5.72;2.28;;;20.40;56.10;;;;;;5058488;28;20059;-51
2022/06/11 04:30:36;;;;;;;3.90;1.38;;;20.50;56.20;;;;;;5053660;28;20531;-51
2022/06/11 04:33:03;;;;;;;5.55;1.70;;;20.50;56.20;;;;;;5059782;28;20057;-49
2022/06/11 04:35:31;;;;;;;5.47;1.65;;;20.50;56.10;;;;;;5057446;28;20055;-50
2022/06/11 04:37:59;;;;;;;5.18;1.80;;;20.40;56.10;;;;;;5059087;28;20057;-49
2022/06/11 04:40:27;;;;;;;8.13;1.73;;;20.40;56.10;;;;;;5057903;28;20049;-52
2022/06/11 04:42:56;;;;;;;5.15;1.50;;;20.50;56.10;;;;;;5056779;28;20048;-51
2022/06/11 04:45:23;;;;;;;10.63;4.75;;;20.50;56.20;;;;;;5059948;28;20504;-49
2022/06/11 04:47:52;;;;;;;11.57;4.70;;;20.50;56.20;;;;;;5059770;28;20053;-50
2022/06/11 04:50:21;;;;;;;6.65;3.03;;;20.50;56.20;;;;;;5055471;28;20515;-49
2022/06/11 04:52:49;;;;;;;5.75;2.15;;;20.50;56.30;;;;;;5059456;28;20052;-49
2022/06/11 04:55:17;;;;;;;3.80;1.75;;;20.50;56.40;;;;;;5059532;28;20055;-50
2022/06/11 04:57:46;;;;;;;6.25;1.92;;;20.50;56.40;;;;;;5059306;28;20052;-52
2022/06/11 05:00:16;;;;;;;6.53;1.60;;;20.50;56.40;;;;;;5058270;28;20053;-48
2022/06/11 05:02:44;;;;;;;6.03;1.95;;;20.60;56.40;;;;;;5058119;28;20056;-54
2022/06/11 05:05:13;;;;;;;3.13;1.50;;;20.50;56.40;;;;;;5059289;28;20044;-51
2022/06/11 05:07:42;;;;;;;10.73;5.30;;;20.60;56.50;;;;;;5063685;28;20060;-52
2022/06/11 05:10:12;;;;;;;13.73;6.82;;;20.60;56.50;;;;;;5063286;28;20051;-48
2022/06/11 05:12:40;;;;;;;7.57;3.45;;;20.60;56.50;;;;;;5063030;28;20049;-51
2022/06/11 05:15:08;;;;;;;8.30;2.22;;;20.60;56.40;;;;;;5061778;28;20053;-49
2022/06/11 05:17:36;;;;;;;8.65;1.88;;;20.60;56.40;;;;;;5063121;28;20419;-53
2022/06/11 05:20:05;;;;;;;4.15;1.63;;;20.70;56.40;;;;;;5062277;28;20052;-53
2022/06/11 05:22:34;;;;;;;4.47;1.90;;;20.70;56.50;;;;;;5063440;28;20415;-53
2022/06/11 05:25:01;;;;;;;3.15;1.70;;;20.70;56.60;;;;;;5062660;28;20056;-53
2022/06/11 05:27:29;;;;;;;4.57;2.05;;;20.70;56.50;;;;;;5063747;28;20507;-51
2022/06/11 05:30:01;;;;;;;6.22;1.70;;;20.70;56.40;;;;;;5060257;28;20056;-49
2022/06/11 05:32:31;;;;;;;4.72;1.70;;;20.70;56.50;;;;;;5055181;28;20048;-51
2022/06/11 05:34:58;;;;;;;7.47;2.40;;;20.80;56.60;;;;;;5061074;28;20115;-50
2022/06/11 05:37:27;;;;;;;6.00;1.70;;;20.80;56.60;;;;;;5061387;28;20055;-53
2022/06/11 05:39:56;;;;;;;4.38;1.77;;;20.80;56.60;;;;;;5063194;28;20055;-51
2022/06/11 05:42:25;;;;;;;6.10;2.30;;;20.80;56.70;;;;;;5058441;28;20075;-52
2022/06/11 05:44:54;;;;;;;4.57;2.08;;;20.90;56.70;;;;;;5062059;28;20500;-52
2022/06/11 05:47:24;;;;;;;8.35;1.77;;;20.90;56.60;;;;;;5062474;28;20455;-53
2022/06/11 05:49:58;;;;;;;4.82;2.10;;;20.90;56.60;;;;;;5060204;28;20052;-49
2022/06/11 05:52:30;;;;;;;7.45;1.65;;;21.00;56.60;;;;;;5061531;28;20056;-52
2022/06/11 05:54:59;;;;;;;7.03;2.30;;;21.00;56.70;;;;;;5063751;28;20060;-50
2022/06/11 05:57:28;;;;;;;8.35;1.95;;;21.10;56.80;;;;;;5062193;28;20419;-54
2022/06/11 06:00:01;;;;;;;3.85;1.40;;;21.10;56.80;;;;;;5061366;28;20052;-49
2022/06/11 06:02:29;;;;;;;4.07;2.03;;;21.10;56.70;;;;;;5055887;28;20048;-50
2022/06/11 06:04:57;;;;;;;7.85;1.92;;;21.20;56.60;;;;;;5059726;28;20052;-48
2022/06/11 06:07:25;;;;;;;4.50;1.88;;;21.20;56.70;;;;;;5060150;28;20044;-50
2022/06/11 06:09:53;;;;;;;4.65;1.80;;;21.30;56.70;;;;;;5062431;28;20052;-51
2022/06/11 06:12:22;;;;;;;4.55;1.92;;;21.30;56.60;;;;;;5059181;28;20049;-51
2022/06/11 06:14:49;;;;;;;5.70;1.80;;;21.40;56.50;;;;;;5059724;28;20056;-53
2022/06/11 06:17:17;;;;;;;3.80;1.45;;;21.40;56.50;;;;;;5062071;28;20049;-51
2022/06/11 06:19:45;;;;;;;4.32;1.77;;;21.40;56.50;;;;;;5062328;28;20056;-51
2022/06/11 06:22:13;;;;;;;4.88;1.90;;;21.50;56.50;;;;;;5060614;28;20052;-51
2022/06/11 06:24:47;;;;;;;5.28;1.67;;;21.50;56.40;;;;;;5060915;28;20056;-50
2022/06/11 06:27:15;;;;;;;5.20;1.90;;;21.60;56.40;;;;;;5062713;28;20053;-52
2022/06/11 06:29:44;;;;;;;6.80;1.90;;;21.60;56.40;;;;;;5061775;28;20096;-51
2022/06/11 06:32:13;;;;;;;4.28;1.55;;;21.60;56.40;;;;;;5061663;28;20060;-49
2022/06/11 06:34:40;;;;;;;6.32;1.92;;;21.70;56.40;;;;;;5061392;28;20429;-55
2022/06/11 06:37:08;;;;;;;4.60;1.65;;;21.70;56.30;;;;;;5061845;28;20491;-48
2022/06/11 06:39:36;;;;;;;3.88;1.80;;;21.80;56.30;;;;;;5060831;28;20407;-52
2022/06/11 06:42:06;;;;;;;4.50;1.80;;;21.80;56.20;;;;;;5058652;28;20106;-51
2022/06/11 06:44:34;;;;;;;5.78;1.88;;;21.80;56.20;;;;;;5055629;28;20057;-52
2022/06/11 06:47:04;;;;;;;5.55;1.73;;;21.90;56.10;;;;;;5060507;28;20404;-49
2022/06/11 06:49:31;;;;;;;4.97;1.95;;;21.90;56.00;;;;;;5061308;28;20052;-48
2022/06/11 06:51:59;;;;;;;2.47;1.58;;;22.00;55.90;;;;;;5061342;28;20056;-50
2022/06/11 06:54:26;;;;;;;3.65;1.40;;;22.00;56.10;;;;;;5063493;28;20056;-49
2022/06/11 06:56:54;;;;;;;7.85;1.98;;;22.00;56.20;;;;;;5060449;28;20059;-49
2022/06/11 06:59:22;;;;;;;9.77;2.10;;;22.10;56.30;;;;;;5059292;28;20538;-55
2022/06/11 07:01:49;;;;;;;5.13;1.65;;;22.10;56.30;;;;;;5057487;28;20057;-53
2022/06/11 07:04:18;;;;;;;4.07;1.67;;;22.20;56.20;;;;;;5060280;28;20049;-52
2022/06/11 07:06:46;;;;;;;5.97;2.03;;;22.20;56.10;;;;;;5058930;28;20049;-52
2022/06/11 07:09:13;;;;;;;4.57;1.80;;;22.20;56.10;;;;;;5059694;28;20063;-51
2022/06/11 07:11:41;;;;;;;7.78;1.75;;;22.30;56.20;;;;;;5059433;28;20496;-54
2022/06/11 07:14:08;;;;;;;4.72;1.40;;;22.30;56.20;;;;;;5061500;28;20048;-49
2022/06/11 07:16:39;;;;;;;3.47;1.35;;;22.30;56.30;;;;;;5058180;28;20075;-53
2022/06/11 07:19:14;;;;;;;5.15;1.92;;;22.40;56.30;;;;;;5061963;28;20052;-53
2022/06/11 07:21:46;;;;;;;4.45;1.40;;;22.40;56.30;;;;;;5058013;28;20052;-52
2022/06/11 07:24:18;;;;;;;5.30;1.83;;;22.50;56.20;;;;;;5056662;28;20064;-55
2022/06/11 07:26:49;;;;;;;5.68;1.88;;;22.50;55.90;;;;;;5060886;28;20381;-50
2022/06/11 07:29:21;;;;;;;4.07;1.75;;;22.60;55.70;;;;;;5052026;28;20416;-50
2022/06/11 07:31:54;;;;;;;6.85;2.05;;;22.60;55.60;;;;;;5054794;28;20040;-52
2022/06/11 07:34:22;;;;;;;3.65;1.73;;;22.60;55.40;;;;;;5059177;28;20056;-50
2022/06/11 07:36:55;;;;;;;7.80;1.88;;;22.70;55.30;;;;;;5056478;28;20055;-50
2022/06/11 07:39:23;;;;;;;4.15;1.70;;;22.70;55.10;;;;;;5057251;28;20051;-49
2022/06/11 07:41:51;;;;;;;6.82;1.83;;;22.70;55.10;;;;;;5057197;28;20061;-50
2022/06/11 07:44:19;;;;;;;4.80;2.00;;;22.80;55.00;;;;;;5059580;28;20049;-52
2022/06/11 07:46:48;;;;;;;3.38;1.52;;;22.80;55.00;;;;;;5057978;28;20052;-49
2022/06/11 07:49:16;;;;;;;5.32;1.40;;;22.80;55.00;;;;;;5057349;28;20563;-52
2022/06/11 07:51:45;;;;;;;4.13;1.75;;;22.90;55.00;;;;;;5056258;28;20106;-50
2022/06/11 07:54:14;;;;;;;3.08;1.70;;;22.90;54.90;;;;;;5059873;28;20052;-50
2022/06/11 07:56:43;;;;;;;4.45;1.70;;;22.90;55.00;;;;;;5061010;28;20064;-49
2022/06/11 07:59:11;;;;;;;4.18;1.67;;;23.00;55.00;;;;;;5053973;28;20056;-53
2022/06/11 08:01:40;;;;;;;2.92;1.42;;;23.10;55.10;;;;;;5053528;28;20071;-52
2022/06/11 08:04:08;;;;;;;4.15;1.30;;;23.10;55.20;;;;;;5060416;28;20083;-50
2022/06/11 08:06:36;;;;;;;5.18;1.77;;;23.20;55.30;;;;;;5057791;28;20056;-49
2022/06/11 08:09:04;;;;;;;8.77;1.40;;;23.20;55.20;;;;;;5057878;28;20048;-52
2022/06/11 08:11:34;;;;;;;6.95;1.70;;;23.30;55.10;;;;;;5056996;28;20055;-50
2022/06/11 08:14:02;;;;;;;5.57;1.75;;;23.40;54.90;;;;;;5060104;28;20063;-51
2022/06/11 08:16:31;;;;;;;3.83;1.50;;;23.50;55.00;;;;;;5058561;28;20044;-52
2022/06/11 08:18:59;;;;;;;5.00;1.75;;;23.50;54.90;;;;;;5051593;28;20420;-51
2022/06/11 08:21:27;;;;;;;3.97;1.85;;;23.60;54.90;;;;;;5048792;28;20048;-50
2022/06/11 08:23:55;;;;;;;2.97;1.45;;;23.70;54.70;;;;;;5051197;28;20098;-50
2022/06/11 08:26:23;;;;;;;7.43;2.20;;;23.70;54.70;;;;;;5053342;28;20056;-51
2022/06/11 08:28:53;;;;;;;4.82;1.50;;;23.80;54.60;;;;;;5051072;28;20044;-52
2022/06/11 08:31:21;;;;;;;4.65;1.75;;;23.80;54.20;;;;;;5048075;28;20052;-50
2022/06/11 08:33:50;;;;;;;4.50;1.60;;;23.90;54.00;;;;;;5050616;28;20059;-49
2022/06/11 08:36:18;;;;;;;3.85;1.25;;;23.90;53.90;;;;;;5059244;28;20052;-50
2022/06/11 08:38:47;;;;;;;3.13;1.67;;;24.00;53.90;;;;;;5057805;28;20056;-55
2022/06/11 08:41:19;;;;;;;5.55;1.67;;;24.00;53.80;;;;;;5059370;28;20408;-50
2022/06/11 08:43:57;;;;;;;5.93;2.00;;;24.10;53.60;;;;;;5064335;28;21169;-50
2022/06/11 08:46:28;;;;;;;5.28;1.67;;;24.10;53.40;;;;;;5062570;28;20059;-48
2022/06/11 08:49:02;;;;;;;7.28;1.85;;;24.10;53.00;;;;;;5060662;28;20055;-48
2022/06/11 08:51:35;;;;;;;2.28;1.17;;;24.20;52.90;;;;;;5060999;28;20057;-50
2022/06/11 08:54:09;;;;;;;8.68;1.60;;;24.20;52.80;;;;;;5062478;28;20423;-48
2022/06/11 08:56:41;;;;;;;4.55;1.52;;;24.20;52.80;;;;;;5063814;28;20053;-48
2022/06/11 08:59:24;;;;;;;2.70;1.50;;;24.30;52.70;;;;;;5059698;28;20480;-47
2022/06/11 09:01:59;;;;;;;4.13;1.17;;;24.30;52.90;;;;;;5061016;28;20049;-56
2022/06/11 09:04:44;;;;;;;5.95;1.38;;;24.40;52.60;;;;;;5058865;28;20622;-51
2022/06/11 09:07:33;;;;;;;6.55;1.88;;;24.40;52.50;;;;;;5062236;28;20055;-55
2022/06/11 09:10:14;;;;;;;3.13;1.33;;;24.40;52.20;;;;;;5057638;28;21090;-50
2022/06/11 09:13:01;;;;;;;2.63;1.27;;;24.50;52.00;;;;;;5065217;28;20064;-50
2022/06/11 09:15:42;;;;;;;2.78;1.48;;;24.50;51.70;;;;;;5064619;28;20053;-52
2022/06/11 09:18:36;;;;;;;2.92;1.20;;;24.50;51.60;;;;;;5062851;28;20048;-48
2022/06/11 09:21:15;;;;;;;3.70;1.37;;;24.60;51.40;;;;;;5060258;28;20056;-49
2022/06/11 09:24:07;;;;;;;2.67;1.17;;;24.60;51.10;;;;;;5059470;28;20055;-49
2022/06/11 09:26:45;;;;;;;5.10;1.50;;;24.60;51.40;;;;;;5059227;28;20056;-51
2022/06/11 09:29:16;;;;;;;5.00;1.30;;;24.60;51.20;;;;;;5061747;28;20048;-50
2022/06/11 09:31:56;;;;;;;2.85;1.33;;;24.70;50.60;;;;;;5061366;28;20049;-50
2022/06/11 09:34:31;;;;;;;3.50;1.10;;;24.70;50.90;;;;;;5062510;28;20952;-50
2022/06/11 09:37:06;;;;;;;4.90;1.45;;;24.70;51.30;;;;;;5061537;28;20053;-50
2022/06/11 09:39:41;;;;;;;4.30;1.50;;;24.70;51.30;;;;;;5058320;28;20060;-50
2022/06/11 09:42:59;;;;;;;3.20;1.15;;;24.70;50.80;;;;;;5063375;28;20060;-48
2022/06/11 09:45:33;;;;;;;2.88;1.10;;;24.70;50.80;;;;;;5014628;28;20036;-50
2022/06/11 09:48:09;;;;;;;;;;;24.70;50.70;;;;;;5063760;28;20057;-49
2022/06/11 09:50:42;;;;;;;3.75;1.10;;;24.80;51.10;;;;;;5060412;28;20310;-50
2022/06/11 09:53:26;;;;;;;4.13;1.50;;;24.80;50.80;;;;;;5064133;28;20063;-50
2022/06/11 09:55:59;;;;;;;3.30;1.15;;;24.80;50.80;;;;;;5064394;28;20060;-55
2022/06/11 09:58:35;;;;;;;5.47;1.38;;;24.80;50.70;;;;;;5062082;28;20051;-47
2022/06/11 10:01:06;;;;;;;3.20;1.13;;;24.80;50.30;;;;;;5061595;28;20044;-52
2022/06/11 10:03:39;;;;;;;1.00;0.80;;;24.70;50.40;;;;;;5060010;28;20063;-50
2022/06/11 10:06:11;;;;;;;2.15;0.90;;;24.70;50.30;;;;;;5062978;28;20053;-48
2022/06/11 10:08:45;;;;;;;3.47;0.95;;;24.70;50.10;;;;;;5060975;28;20056;-48
2022/06/11 10:11:19;;;;;;;2.40;1.20;;;24.70;50.20;;;;;;5061221;28;20510;-48
2022/06/11 10:13:51;;;;;;;1.58;0.88;;;24.70;50.10;;;;;;5063590;28;20060;-51
2022/06/11 10:16:30;;;;;;;3.17;1.00;;;24.70;50.30;;;;;;5062381;28;20061;-50
2022/06/11 10:19:08;;;;;;;4.10;1.20;;;24.80;49.90;;;;;;5062877;28;20044;-50
2022/06/11 10:21:38;;;;;;;2.25;1.15;;;24.80;50.40;;;;;;5060922;28;20063;-49
2022/06/11 10:24:12;;;;;;;3.50;1.08;;;24.80;50.50;;;;;;5063334;28;20052;-51
2022/06/11 10:26:42;;;;;;;;;;;24.90;50.50;;;;;;5063471;28;20056;-54
2022/06/11 10:29:15;;;;;;;2.03;0.90;;;25.00;50.50;;;;;;5057906;28;19928;-49
2022/06/11 10:31:48;;;;;;;2.43;1.20;;;25.00;50.10;;;;;;5052766;28;20059;-48
2022/06/11 10:34:22;;;;;;;1.60;0.90;;;25.10;49.20;;;;;;5055040;28;20512;-54
2022/06/11 10:36:54;;;;;;;3.22;1.00;;;25.10;49.30;;;;;;5054895;28;20060;-50
2022/06/11 10:39:27;;;;;;;2.05;1.15;;;25.20;49.20;;;;;;5055207;28;20052;-49
2022/06/11 10:42:02;;;;;;;2.53;1.02;;;25.20;49.10;;;;;;5050287;28;20044;-52
2022/06/11 10:44:37;;;;;;;3.22;1.02;;;25.30;49.30;;;;;;5054647;28;20056;-51
2022/06/11 10:47:18;;;;;;;2.22;0.90;;;25.40;47.80;;;;;;5055442;28;20511;-50
2022/06/11 10:49:51;;;;;;;2.25;0.95;;;25.50;48.60;;;;;;5052940;28;20047;-54
2022/06/11 10:52:27;;;;;;;1.52;0.80;;;25.60;48.20;;;;;;5053325;28;20504;-47
2022/06/11 10:54:55;;;;;;;2.15;0.70;;;25.70;48.40;;;;;;5051220;28;20354;-47
2022/06/11 10:57:26;;;;;;;2.05;0.90;;;25.80;48.60;;;;;;5052278;28;20056;-53
2022/06/11 11:00:01;;;;;;;2.38;0.70;;;25.80;47.70;;;;;;5052303;28;20048;-57
2022/06/11 11:02:36;;;;;;;1.60;0.77;;;25.90;46.60;;;;;;5061925;28;20535;-50
2022/06/11 11:05:07;;;;;;;4.22;0.65;;;26.00;46.50;;;;;;5060263;28;20057;-52
2022/06/11 11:07:44;;;;;;;1.08;0.73;;;26.10;46.00;;;;;;5061577;28;20056;-53
2022/06/11 11:10:23;;;;;;;4.55;0.80;;;26.10;45.90;;;;;;5059996;28;20044;-51
2022/06/11 11:12:53;;;;;;;3.05;0.80;;;26.20;46.50;;;;;;5060131;28;20071;-52
2022/06/11 11:15:26;;;;;;;2.83;0.55;;;26.30;46.70;;;;;;5062079;28;20063;-48
2022/06/11 11:18:00;;;;;;;3.72;0.90;;;26.40;47.20;;;;;;5061554;28;20607;-52
2022/06/11 11:20:32;;;;;;;;;;;26.50;47.00;;;;;;5059784;28;20057;-48
2022/06/11 11:23:06;;;;;;;1.05;0.73;;;26.60;47.20;;;;;;5059843;28;20360;-50
2022/06/11 11:25:38;;;;;;;0.80;0.68;;;26.70;46.20;;;;;;5061613;28;20056;-49
2022/06/11 11:28:07;;;;;;;3.13;0.75;;;26.70;46.00;;;;;;5061724;28;20056;-50
2022/06/11 11:30:38;;;;;;;1.35;0.63;;;26.80;44.80;;;;;;5060361;28;20045;-51
2022/06/11 11:33:15;;;;;;;1.23;0.75;;;26.80;43.20;;;;;;5062530;28;20053;-50
2022/06/11 11:35:44;;;;;;;1.00;0.50;;;26.80;44.00;;;;;;5058972;28;20730;-48
2022/06/11 11:38:17;;;;;;;1.95;0.88;;;26.80;44.20;;;;;;5059237;28;20052;-53
2022/06/11 11:40:53;;;;;;;1.27;0.60;;;26.80;44.10;;;;;;5059951;28;20677;-48
2022/06/11 11:43:22;;;;;;;2.22;1.00;;;26.80;44.40;;;;;;5061493;28;20060;-48
2022/06/11 11:45:57;;;;;;;0.88;0.70;;;26.80;44.50;;;;;;5059298;28;20057;-51
2022/06/11 11:48:29;;;;;;;1.00;0.60;;;26.80;45.60;;;;;;5059898;28;20503;-50
2022/06/11 11:51:03;;;;;;;1.10;0.75;;;26.80;45.80;;;;;;5058813;28;20054;-50
2022/06/11 11:53:36;;;;;;;1.58;0.68;;;26.90;46.00;;;;;;5061368;28;20064;-47
2022/06/11 11:56:06;;;;;;;0.93;0.60;;;26.80;46.10;;;;;;5058016;28;20056;-50
2022/06/11 11:58:37;;;;;;;0.77;0.60;;;26.90;46.10;;;;;;5061810;28;20067;-50
2022/06/11 12:01:08;;;;;;;1.65;0.80;;;26.90;46.10;;;;;;5059114;28;20055;-51
2022/06/11 12:03:40;;;;;;;2.95;0.68;;;26.90;44.60;;;;;;5062053;28;20056;-49
2022/06/11 12:06:13;;;;;;;2.00;0.80;;;26.90;44.00;;;;;;5059437;28;20063;-53
2022/06/11 12:08:45;;;;;;;0.95;0.68;;;26.90;43.10;;;;;;5058158;28;20052;-48
2022/06/11 12:11:33;;;;;;;1.35;0.95;;;26.80;43.10;;;;;;5059830;28;20542;-50
2022/06/11 12:14:02;;;;;;;1.58;0.80;;;26.80;43.60;;;;;;5061551;28;20057;-52
2022/06/11 12:16:32;;;;;;;2.45;0.82;;;26.80;43.30;;;;;;5060217;28;20049;-52
2022/06/11 12:19:06;;;;;;;3.70;0.80;;;26.80;42.50;;;;;;5061956;28;20059;-49
2022/06/11 12:21:40;;;;;;;1.63;0.70;;;26.70;43.10;;;;;;5058115;28;20056;-49
2022/06/11 12:24:12;;;;;;;;;;;26.70;44.20;;;;;;5061199;28;20052;-51
2022/06/11 12:26:44;;;;;;;1.25;0.80;;;26.80;44.60;;;;;;5061935;28;20230;-49
2022/06/11 12:29:18;;;;;;;1.92;0.80;;;26.70;43.90;;;;;;5058657;28;20059;-50
2022/06/11 12:31:46;;;;;;;1.88;0.80;;;26.70;43.80;;;;;;5060092;28;20436;-48
2022/06/11 12:34:15;;;;;;;0.85;0.70;;;26.70;44.00;;;;;;5060917;28;20063;-51
2022/06/11 12:36:53;;;;;;;3.92;0.82;;;26.70;44.50;;;;;;5056612;28;20052;-50
2022/06/11 12:39:34;;;;;;;1.80;0.77;;;26.60;44.10;;;;;;5057336;28;20526;-52
2022/06/11 12:42:11;;;;;;;1.20;0.88;;;26.60;44.00;;;;;;5060381;28;20061;-51
2022/06/11 12:44:51;;;;;;;1.58;0.80;;;26.60;44.00;;;;;;5058947;28;20060;-50
2022/06/11 12:47:35;;;;;;;2.38;0.90;;;26.60;43.80;;;;;;5057428;28;20056;-49
2022/06/11 12:50:11;;;;;;;2.33;1.10;;;26.70;43.80;;;;;;5058552;28;20063;-48
2022/06/11 12:52:48;;;;;;;1.20;0.80;;;26.60;42.70;;;;;;5059195;28;20060;-50
2022/06/11 12:55:36;;;;;;;4.68;1.00;;;26.60;43.70;;;;;;5058390;28;20052;-51
2022/06/11 12:58:10;;;;;;;2.15;0.90;;;26.60;43.70;;;;;;5058164;28;20048;-53
2022/06/11 13:00:47;;;;;;;1.40;0.80;;;26.60;43.80;;;;;;5059657;28;20401;-53
2022/06/11 13:03:47;;;;;;;1.90;1.10;;;26.60;43.00;;;;;;5061362;28;20052;-50
2022/06/11 13:06:30;;;;;;;3.60;0.85;;;26.60;43.90;;;;;;5055890;28;20416;-49
2022/06/11 13:09:08;;;;;;;2.08;0.80;;;26.60;44.40;;;;;;5050680;28;20058;-49
2022/06/11 13:11:47;;;;;;;3.17;0.77;;;26.60;44.70;;;;;;5047176;28;20048;-53
2022/06/11 13:14:56;;;;;;;1.90;0.80;;;26.60;44.00;;;;;;5054729;28;20052;-51
2022/06/11 13:17:47;;;;;;;4.10;0.80;;;26.60;44.00;;;;;;5045905;28;20057;-52